Time,TemperatureF,DewpointF,PressureIn,WindDirection,WindDirectionDegrees,WindSpeedMPH,WindSpeedGustMPH,Humidity,HourlyPrecipIn,Conditions,Clouds,dailyrainin,SoftwareType,DateUTC
2013-03-22 00:12:00,29.3,12.1,29.80,East,90,0.0,-999.0,48,-99.99,,,0.00,Acu-Link.com,2013-03-22 04:12:00,
2013-03-22 00:27:00,28.8,13.0,29.81,NNW,337,0.0,-999.0,51,-99.99,,,0.00,Acu-Link.com,2013-03-22 04:27:00,
2013-03-22 00:42:00,28.2,13.3,29.81,NW,315,0.0,-999.0,53,-99.99,,,0.00,Acu-Link.com,2013-03-22 04:42:00,
2013-03-22 00:57:00,27.7,12.8,29.81,West,270,0.0,-999.0,53,-99.99,,,0.00,Acu-Link.com,2013-03-22 04:57:00,
2013-03-22 01:12:00,28.0,14.8,29.81,South,180,0.0,-999.0,57,-99.99,,,0.00,Acu-Link.com,2013-03-22 05:12:00,
2013-03-22 01:27:00,27.7,14.1,29.81,ESE,112,0.0,-999.0,56,-99.99,,,0.00,Acu-Link.com,2013-03-22 05:27:00,
2013-03-22 01:43:00,27.3,14.5,29.82,South,180,0.0,-999.0,58,-99.99,,,0.00,Acu-Link.com,2013-03-22 05:43:00,
2013-03-22 01:58:00,26.6,15.4,29.82,NW,315,0.0,-999.0,62,-99.99,,,0.00,Acu-Link.com,2013-03-22 05:58:00,
2013-03-22 02:13:00,26.4,16.3,29.81,WSW,247,0.0,-999.0,65,-99.99,,,0.00,Acu-Link.com,2013-03-22 06:13:00,
2013-03-22 02:28:00,26.2,16.4,29.82,NNE,22,0.0,-999.0,66,-99.99,,,0.00,Acu-Link.com,2013-03-22 06:28:00,
2013-03-22 02:43:00,25.9,16.5,29.82,ENE,67,0.0,-999.0,67,-99.99,,,0.00,Acu-Link.com,2013-03-22 06:43:00,
2013-03-22 02:58:00,25.5,17.1,29.82,West,270,0.0,-999.0,70,-99.99,,,0.00,Acu-Link.com,2013-03-22 06:58:00,
2013-03-22 03:13:00,26.2,17.1,29.83,West,270,0.0,-999.0,68,-99.99,,,0.00,Acu-Link.com,2013-03-22 07:13:00,
2013-03-22 03:28:00,25.9,17.8,29.83,SSW,202,0.0,-999.0,71,-99.99,,,0.00,Acu-Link.com,2013-03-22 07:28:00,
2013-03-22 03:43:00,25.5,17.1,29.83,SSW,202,0.0,-999.0,70,-99.99,,,0.00,Acu-Link.com,2013-03-22 07:43:00,
2013-03-22 03:59:00,25.3,17.6,29.84,SSW,202,0.0,-999.0,72,-99.99,,,0.00,Acu-Link.com,2013-03-22 07:59:00,
2013-03-22 04:14:00,25.7,17.0,29.85,SSW,202,0.0,-999.0,69,-99.99,,,0.00,Acu-Link.com,2013-03-22 08:14:00,
2013-03-22 04:29:00,25.3,16.2,29.85,SSW,202,0.0,-999.0,68,-99.99,,,0.00,Acu-Link.com,2013-03-22 08:29:00,
2013-03-22 04:44:00,25.2,17.1,29.85,South,180,0.0,-999.0,71,-99.99,,,0.00,Acu-Link.com,2013-03-22 08:44:00,
2013-03-22 04:59:00,25.2,17.1,29.86,SSE,157,0.0,-999.0,71,-99.99,,,0.00,Acu-Link.com,2013-03-22 08:59:00,
2013-03-22 05:14:00,24.8,17.4,29.85,WNW,292,0.0,-999.0,73,-99.99,,,0.00,Acu-Link.com,2013-03-22 09:14:00,
2013-03-22 05:30:00,24.6,17.2,29.86,SE,135,0.0,-999.0,73,-99.99,,,0.00,Acu-Link.com,2013-03-22 09:30:00,
2013-03-22 05:45:00,24.3,16.9,29.86,ENE,67,0.0,-999.0,73,-99.99,,,0.00,Acu-Link.com,2013-03-22 09:45:00,
2013-03-22 06:00:00,24.3,16.9,29.87,East,90,0.0,-999.0,73,-99.99,,,0.00,Acu-Link.com,2013-03-22 10:00:00,
2013-03-22 06:15:00,24.3,17.2,29.87,NW,315,0.0,-999.0,74,-99.99,,,0.00,Acu-Link.com,2013-03-22 10:15:00,
2013-03-22 06:30:00,24.3,17.2,29.88,SSW,202,0.0,-999.0,74,-99.99,,,0.00,Acu-Link.com,2013-03-22 10:30:00,
2013-03-22 06:45:00,24.3,16.6,29.89,ENE,67,0.0,-999.0,72,-99.99,,,0.00,Acu-Link.com,2013-03-22 10:45:00,
2013-03-22 07:00:00,24.3,16.6,29.89,ENE,67,0.0,-999.0,72,-99.99,,,0.00,Acu-Link.com,2013-03-22 11:00:00,
2013-03-22 07:15:00,23.7,15.7,29.89,East,90,0.0,-999.0,71,-99.99,,,0.00,Acu-Link.com,2013-03-22 11:15:00,
2013-03-22 07:30:00,23.7,16.3,29.90,ESE,112,0.0,-999.0,73,-99.99,,,0.00,Acu-Link.com,2013-03-22 11:30:00,
2013-03-22 07:45:00,23.9,16.5,29.90,ESE,112,0.0,-999.0,73,-99.99,,,0.00,Acu-Link.com,2013-03-22 11:45:00,
2013-03-22 08:01:00,24.4,17.3,29.90,ESE,112,0.0,-999.0,74,-99.99,,,0.00,Acu-Link.com,2013-03-22 12:01:00,
2013-03-22 09:01:00,30.2,19.1,29.91,East,90,0.0,-999.0,63,-99.99,,,0.00,Acu-Link.com,2013-03-22 13:01:00,
2013-03-22 09:16:00,31.5,18.4,29.92,East,90,0.0,-999.0,58,-99.99,,,0.00,Acu-Link.com,2013-03-22 13:16:00,
2013-03-22 09:31:00,32.9,13.9,29.91,East,90,1.7,-999.0,45,-99.99,,,0.00,Acu-Link.com,2013-03-22 13:31:00,
2013-03-22 09:46:00,34.5,13.8,29.91,ESE,112,1.1,-999.0,42,-99.99,,,0.00,Acu-Link.com,2013-03-22 13:46:00,
2013-03-22 10:01:00,36.1,13.0,29.92,WSW,247,0.0,-999.0,38,-99.99,,,0.00,Acu-Link.com,2013-03-22 14:01:00,
2013-03-22 10:32:00,39.4,12.0,29.92,ENE,67,0.0,-999.0,32,-99.99,,,0.00,Acu-Link.com,2013-03-22 14:32:00,
2013-03-22 10:47:00,39.4,11.3,29.92,SW,225,2.7,-999.0,31,-99.99,,,0.00,Acu-Link.com,2013-03-22 14:47:00,
2013-03-22 11:02:00,40.3,12.1,29.93,NW,315,1.1,-999.0,31,-99.99,,,0.00,Acu-Link.com,2013-03-22 15:02:00,
2013-03-22 11:17:00,39.6,11.5,29.92,SSE,157,1.1,-999.0,31,-99.99,,,0.00,Acu-Link.com,2013-03-22 15:17:00,
2013-03-22 11:32:00,40.3,11.4,29.92,South,180,1.7,-999.0,30,-99.99,,,0.00,Acu-Link.com,2013-03-22 15:32:00,
2013-03-22 11:47:00,41.9,13.5,29.91,South,180,1.7,-999.0,31,-99.99,,,0.00,Acu-Link.com,2013-03-22 15:47:00,
2013-03-22 12:02:00,42.8,11.2,29.91,South,180,1.7,-999.0,27,-99.99,,,0.00,Acu-Link.com,2013-03-22 16:02:00,
2013-03-22 12:17:00,42.4,9.1,29.90,SW,225,2.2,-999.0,25,-99.99,,,0.00,Acu-Link.com,2013-03-22 16:17:00,
2013-03-22 12:33:00,45.0,10.4,29.89,WNW,292,1.7,-999.0,24,-99.99,,,0.00,Acu-Link.com,2013-03-22 16:33:00,
2013-03-22 13:03:00,45.3,7.7,29.88,SW,225,1.1,-999.0,21,-99.99,,,0.00,Acu-Link.com,2013-03-22 17:03:00,
2013-03-22 13:18:00,47.7,9.7,29.87,SSW,202,1.7,-999.0,21,-99.99,,,0.00,Acu-Link.com,2013-03-22 17:18:00,
2013-03-22 13:33:00,48.2,6.7,29.88,WSW,247,2.7,-999.0,18,-99.99,,,0.00,Acu-Link.com,2013-03-22 17:33:00,
2013-03-22 13:48:00,50.7,7.5,29.87,WSW,247,2.7,-999.0,17,-99.99,,,0.00,Acu-Link.com,2013-03-22 17:48:00,
2013-03-22 14:03:00,50.2,10.7,29.87,South,180,1.1,-999.0,20,-99.99,,,0.00,Acu-Link.com,2013-03-22 18:03:00,
2013-03-22 14:18:00,50.9,7.7,29.86,WNW,292,2.7,-999.0,17,-99.99,,,0.00,Acu-Link.com,2013-03-22 18:18:00,
2013-03-22 14:34:00,51.1,11.4,29.86,South,180,1.1,-999.0,20,-99.99,,,0.00,Acu-Link.com,2013-03-22 18:34:00,
2013-03-22 14:49:00,51.4,9.3,29.85,North,0,2.2,-999.0,18,-99.99,,,0.00,Acu-Link.com,2013-03-22 18:49:00,
2013-03-22 15:05:00,50.4,10.9,29.84,South,180,1.1,-999.0,20,-99.99,,,0.00,Acu-Link.com,2013-03-22 19:05:00,
2013-03-22 15:20:00,52.3,8.8,29.83,SW,225,1.1,-999.0,17,-99.99,,,0.00,Acu-Link.com,2013-03-22 19:20:00,
2013-03-22 15:35:00,52.5,9.0,29.83,SSW,202,2.7,-999.0,17,-99.99,,,0.00,Acu-Link.com,2013-03-22 19:35:00,
2013-03-22 15:50:00,52.9,8.0,29.82,SSE,157,3.2,-999.0,16,-99.99,,,0.00,Acu-Link.com,2013-03-22 19:50:00,
2013-03-22 16:05:00,55.6,5.6,29.82,West,270,1.7,-999.0,13,-99.99,,,0.00,Acu-Link.com,2013-03-22 20:05:00,
2013-03-22 16:20:00,54.7,8.0,29.82,WNW,292,1.7,-999.0,15,-99.99,,,0.00,Acu-Link.com,2013-03-22 20:20:00,
2013-03-22 16:35:00,53.6,8.5,29.81,South,180,2.7,-999.0,16,-99.99,,,0.00,Acu-Link.com,2013-03-22 20:35:00,
2013-03-22 16:50:00,56.5,7.9,29.80,SSW,202,2.2,-999.0,14,-99.99,,,0.00,Acu-Link.com,2013-03-22 20:50:00,
2013-03-22 17:05:00,54.7,9.4,29.81,ESE,112,1.1,-999.0,16,-99.99,,,0.00,Acu-Link.com,2013-03-22 21:05:00,
2013-03-22 17:21:00,56.8,6.5,29.80,ESE,112,2.2,-999.0,13,-99.99,,,0.00,Acu-Link.com,2013-03-22 21:21:00,
2013-03-22 17:36:00,54.9,9.6,29.81,South,180,1.1,-999.0,16,-99.99,,,0.00,Acu-Link.com,2013-03-22 21:36:00,
2013-03-22 18:21:00,51.4,12.8,29.81,SSW,202,1.1,-999.0,21,-99.99,,,0.00,Acu-Link.com,2013-03-22 22:21:00,
2013-03-22 18:36:00,50.4,13.0,29.81,WSW,247,1.1,-999.0,22,-99.99,,,0.00,Acu-Link.com,2013-03-22 22:36:00,
2013-03-22 18:51:00,50.0,14.7,29.82,West,270,1.7,-999.0,24,-99.99,,,0.00,Acu-Link.com,2013-03-22 22:51:00,
2013-03-22 19:06:00,49.5,16.1,29.82,South,180,0.0,-999.0,26,-99.99,,,0.00,Acu-Link.com,2013-03-22 23:06:00,
2013-03-22 19:37:00,48.7,16.2,29.83,SW,225,0.0,-999.0,27,-99.99,,,0.00,Acu-Link.com,2013-03-22 23:37:00,
2013-03-22 19:52:00,48.4,16.8,29.82,SSE,157,0.0,-999.0,28,-99.99,,,0.00,Acu-Link.com,2013-03-22 23:52:00,
2013-03-22 20:07:00,48.2,16.6,29.83,SSE,157,0.0,-999.0,28,-99.99,,,0.00,Acu-Link.com,2013-03-23 00:07:00,
2013-03-22 20:22:00,47.7,17.8,29.83,SSE,157,1.1,-999.0,30,-99.99,,,0.00,Acu-Link.com,2013-03-23 00:22:00,
2013-03-22 20:52:00,47.3,19.0,29.83,WSW,247,0.0,-999.0,32,-99.99,,,0.00,Acu-Link.com,2013-03-23 00:52:00,
2013-03-22 21:07:00,47.3,19.0,29.83,ENE,67,0.0,-999.0,32,-99.99,,,0.00,Acu-Link.com,2013-03-23 01:07:00,
2013-03-22 21:22:00,46.9,19.3,29.83,NNW,337,1.1,-999.0,33,-99.99,,,0.00,Acu-Link.com,2013-03-23 01:22:00,
2013-03-22 21:37:00,46.8,19.9,29.84,SW,225,0.0,-999.0,34,-99.99,,,0.00,Acu-Link.com,2013-03-23 01:37:00,
2013-03-22 21:52:00,46.4,21.6,29.84,SSE,157,0.0,-999.0,37,-99.99,,,0.00,Acu-Link.com,2013-03-23 01:52:00,
2013-03-22 22:08:00,46.0,20.6,29.85,WNW,292,0.0,-999.0,36,-99.99,,,0.00,Acu-Link.com,2013-03-23 02:08:00,
2013-03-22 22:23:00,45.3,20.6,29.85,WNW,292,0.0,-999.0,37,-99.99,,,0.00,Acu-Link.com,2013-03-23 02:23:00,
2013-03-22 22:38:00,44.8,20.8,29.85,WNW,292,0.0,-999.0,38,-99.99,,,0.00,Acu-Link.com,2013-03-23 02:38:00,
2013-03-22 22:53:00,44.1,21.3,29.84,WNW,292,0.0,-999.0,40,-99.99,,,0.00,Acu-Link.com,2013-03-23 02:53:00,
2013-03-22 23:08:00,43.3,21.8,29.84,WNW,292,0.0,-999.0,42,-99.99,,,0.00,Acu-Link.com,2013-03-23 03:08:00,
2013-03-22 23:23:00,42.8,21.3,29.84,WNW,292,0.0,-999.0,42,-99.99,,,0.00,Acu-Link.com,2013-03-23 03:23:00,
2013-03-22 23:38:00,42.4,21.5,29.84,WNW,292,0.0,-999.0,43,-99.99,,,0.00,Acu-Link.com,2013-03-23 03:38:00,
2013-03-22 23:53:00,42.1,25.3,29.85,WNW,292,0.0,-999.0,51,-99.99,,,0.00,Acu-Link.com,2013-03-23 03:53:00,